Lambourn, United Kingdom
Current Conditions -  °F | °C
As of 4:23 AM on Thursday 27 Nov 2014 (Local Time) from EGVA Reporting Station
Overcast Overcast  
Wind Chill:   Ceiling: 500
Heat Index:   Visibility: 6mi
Dew Point:   Wind: 0mph
Humidity: 100%   Direction: NA
Pressure: 29.64"   Gusts: NA
Location:  51.51°N, 1.53°W
Report Text: EGVA 270423Z AUTO 00000KT 9999 OVC005 07/07 A2964 RMK AO2 $
Loading
Personal Weather Stations






























Interactive Weather Map New forecast layout! Learn more

10-Day Weather Forecast

Advertisements
Track Severe Weather on mobile